createdAt,value
2023-05-14T00:00:31.845Z,81.40
2023-05-14T00:02:59.368Z,81.50
2023-05-14T00:05:27.044Z,81.40
2023-05-14T00:07:54.474Z,81.30
2023-05-14T00:10:22.157Z,81.50
2023-05-14T00:12:51.626Z,81.70
2023-05-14T00:15:19.062Z,81.90
2023-05-14T00:17:46.564Z,82.30
2023-05-14T00:20:14.403Z,82.00
2023-05-14T00:22:41.992Z,82.70
2023-05-14T00:25:09.909Z,81.90
2023-05-14T00:27:40.020Z,82.20
2023-05-14T00:30:07.929Z,81.90
2023-05-14T00:32:35.458Z,82.10
2023-05-14T00:35:05.724Z,82.00
2023-05-14T00:37:33.115Z,82.40
2023-05-14T00:40:00.489Z,82.70
2023-05-14T00:42:27.971Z,82.30
2023-05-14T00:44:55.542Z,82.50
2023-05-14T00:47:23.178Z,82.50
2023-05-14T00:49:50.598Z,83.10
2023-05-14T00:52:18.689Z,82.50
2023-05-14T00:54:48.027Z,82.40
2023-05-14T00:57:15.537Z,82.90
2023-05-14T00:59:43.131Z,82.50
2023-05-14T01:02:11.146Z,83.10
2023-05-14T01:04:39.542Z,83.10
2023-05-14T01:07:20.101Z,82.60
2023-05-14T01:09:47.423Z,83.30
2023-05-14T01:12:30.063Z,83.00
2023-05-14T01:15:04.879Z,82.90
2023-05-14T01:17:36.137Z,82.90
2023-05-14T01:20:04.375Z,83.40
2023-05-14T01:22:31.718Z,83.30
2023-05-14T01:24:59.038Z,83.20
2023-05-14T01:27:35.906Z,83.90
2023-05-14T01:30:21.753Z,83.80
2023-05-14T01:32:53.785Z,83.40
2023-05-14T01:35:27.016Z,83.80
2023-05-14T01:37:58.252Z,83.80
2023-05-14T01:40:26.286Z,83.80
2023-05-14T01:42:54.919Z,83.50
2023-05-14T01:45:23.464Z,83.70
2023-05-14T01:47:51.401Z,83.80
2023-05-14T01:50:19.008Z,84.20
2023-05-14T01:52:48.254Z,84.20
2023-05-14T01:55:16.033Z,84.10
2023-05-14T01:57:43.491Z,84.20
2023-05-14T02:00:11.586Z,84.30
2023-05-14T02:02:41.615Z,84.60
2023-05-14T02:05:12.545Z,84.80
2023-05-14T02:07:40.375Z,84.60
2023-05-14T02:10:09.938Z,84.70
2023-05-14T02:12:38.598Z,84.80
2023-05-14T02:15:06.470Z,84.40
2023-05-14T02:17:34.817Z,84.80
2023-05-14T02:20:02.243Z,85.40
2023-05-14T02:22:29.675Z,85.20
2023-05-14T02:24:57.052Z,85.50
2023-05-14T02:27:24.355Z,85.50
2023-05-14T02:29:53.533Z,85.50
2023-05-14T02:32:21.977Z,86.10
2023-05-14T02:34:49.364Z,87.20
2023-05-14T02:37:16.686Z,86.00
2023-05-14T02:39:43.988Z,85.30
2023-05-14T02:42:11.333Z,85.40
2023-05-14T02:44:38.654Z,85.80
2023-05-14T02:47:06.629Z,85.80
2023-05-14T02:49:34.132Z,85.90
2023-05-14T02:52:01.455Z,85.90
2023-05-14T02:54:28.875Z,85.90
2023-05-14T02:56:56.227Z,86.30
2023-05-14T02:59:24.404Z,86.20
2023-05-14T03:01:53.475Z,86.00
2023-05-14T03:04:21.256Z,87.20
2023-05-14T03:06:48.675Z,86.10
2023-05-14T03:09:16.075Z,86.40
2023-05-14T03:11:43.520Z,86.50
2023-05-14T03:14:10.987Z,86.80
2023-05-14T03:16:40.111Z,86.90
2023-05-14T03:19:07.793Z,86.60
2023-05-14T03:21:35.318Z,86.90
2023-05-14T03:24:02.743Z,87.00
2023-05-14T03:26:30.074Z,86.80
2023-05-14T03:28:57.389Z,87.20
2023-05-14T03:31:25.873Z,87.20
2023-05-14T03:33:53.274Z,86.90
2023-05-14T03:36:20.786Z,87.60
2023-05-14T03:38:48.448Z,87.30
2023-05-14T03:41:18.781Z,87.70
2023-05-14T03:43:46.152Z,88.20
2023-05-14T03:46:13.496Z,87.60
2023-05-14T03:48:41.183Z,87.70
2023-05-14T03:51:08.592Z,87.80
2023-05-14T03:53:36.753Z,88.20
2023-05-14T03:56:04.385Z,88.00
2023-05-14T03:58:31.788Z,88.00
2023-05-14T04:01:00.662Z,88.80
2023-05-14T04:03:28.766Z,88.10
2023-05-14T04:05:57.504Z,87.90
2023-05-14T04:08:24.911Z,87.70
2023-05-14T04:10:52.293Z,88.30
2023-05-14T04:13:19.600Z,88.20
2023-05-14T04:15:47.050Z,88.30
2023-05-14T04:18:14.438Z,88.50
2023-05-14T04:20:41.866Z,88.10
2023-05-14T04:23:09.325Z,88.60
2023-05-14T04:25:36.698Z,88.80
2023-05-14T04:28:04.166Z,88.70
2023-05-14T04:30:31.479Z,88.70
2023-05-14T04:32:59.039Z,88.60
2023-05-14T04:35:27.985Z,88.60
2023-05-14T04:37:55.720Z,89.60
2023-05-14T04:40:23.339Z,88.60
2023-05-14T04:42:50.743Z,88.70
2023-05-14T04:45:18.116Z,88.60
2023-05-14T04:47:46.698Z,88.60
2023-05-14T04:50:14.297Z,89.20
2023-05-14T04:52:41.777Z,88.60
2023-05-14T04:55:09.876Z,88.70
2023-05-14T04:57:37.251Z,88.40
2023-05-14T05:00:09.527Z,88.80
2023-05-14T05:02:37.015Z,88.70
2023-05-14T05:05:04.652Z,89.10
2023-05-14T05:07:31.989Z,89.40
2023-05-14T05:10:00.435Z,88.60
2023-05-14T05:12:30.095Z,88.80
2023-05-14T05:14:57.981Z,88.70
2023-05-14T05:17:25.742Z,89.30
2023-05-14T05:19:53.139Z,89.20
2023-05-14T05:22:20.651Z,90.00
2023-05-14T05:24:49.819Z,89.20
2023-05-14T05:27:17.627Z,89.10
2023-05-14T05:29:46.238Z,89.20
2023-05-14T05:32:13.642Z,88.70
2023-05-14T05:34:41.543Z,89.10
2023-05-14T05:37:12.691Z,88.90
2023-05-14T05:39:40.945Z,88.20
2023-05-14T05:42:08.555Z,88.20
2023-05-14T05:44:35.897Z,88.00
2023-05-14T05:47:03.344Z,87.90
2023-05-14T05:49:30.990Z,87.80
2023-05-14T05:51:58.365Z,87.50
2023-05-14T05:54:26.070Z,87.90
2023-05-14T05:56:53.411Z,87.60
2023-05-14T05:59:20.869Z,88.00
2023-05-14T06:01:48.358Z,88.20
2023-05-14T06:04:15.774Z,88.20
2023-05-14T06:06:43.075Z,88.10
2023-05-14T06:09:10.513Z,88.40
2023-05-14T06:11:37.829Z,88.10
2023-05-14T06:14:05.414Z,88.30
2023-05-14T06:16:32.750Z,87.80
2023-05-14T06:19:00.207Z,87.80
2023-05-14T06:21:27.647Z,88.20
2023-05-14T06:23:55.025Z,88.00
2023-05-14T06:26:22.414Z,88.50
2023-05-14T06:28:49.735Z,88.20
2023-05-14T06:31:17.997Z,88.30
2023-05-14T06:33:45.428Z,88.00
2023-05-14T06:36:12.807Z,87.60
2023-05-14T06:38:40.204Z,87.50
2023-05-14T06:41:07.534Z,87.10
2023-05-14T06:43:34.998Z,87.00
2023-05-14T06:46:03.970Z,86.70
2023-05-14T06:48:31.633Z,87.10
2023-05-14T06:50:59.215Z,86.60
2023-05-14T06:53:26.557Z,86.90
2023-05-14T06:55:54.028Z,86.80
2023-05-14T06:58:21.388Z,87.10
2023-05-14T07:00:48.761Z,86.70
2023-05-14T07:03:16.197Z,86.70
2023-05-14T07:05:44.923Z,86.20
2023-05-14T07:08:12.438Z,85.60
2023-05-14T07:10:40.172Z,85.80
2023-05-14T07:13:08.573Z,86.00
2023-05-14T07:15:35.915Z,86.40
2023-05-14T07:18:03.452Z,85.90
2023-05-14T07:20:31.603Z,86.50
2023-05-14T07:22:59.150Z,85.80
2023-05-14T07:25:26.488Z,85.20
2023-05-14T07:27:53.868Z,85.00
2023-05-14T07:30:21.824Z,84.10
2023-05-14T07:32:49.420Z,83.60
2023-05-14T07:35:17.148Z,83.50
2023-05-14T07:37:44.564Z,83.00
2023-05-14T07:40:12.175Z,82.80
2023-05-14T07:42:39.641Z,83.00
2023-05-14T07:45:09.800Z,83.20
2023-05-14T07:47:37.408Z,82.40
2023-05-14T07:50:05.770Z,82.40
2023-05-14T07:52:33.118Z,82.50
2023-05-14T07:55:01.454Z,82.30
2023-05-14T07:57:28.775Z,81.90
2023-05-14T07:59:56.886Z,81.80
2023-05-14T08:02:24.457Z,82.60
2023-05-14T08:04:52.139Z,82.40
2023-05-14T08:07:19.526Z,82.10
2023-05-14T08:09:47.188Z,82.20
2023-05-14T08:12:14.967Z,82.10
2023-05-14T08:14:42.441Z,81.10
2023-05-14T08:17:10.016Z,81.00
2023-05-14T08:19:37.611Z,80.90
2023-05-14T08:22:05.636Z,81.10
2023-05-14T08:24:33.040Z,80.90
2023-05-14T08:27:00.551Z,80.90
2023-05-14T08:29:28.344Z,81.00
2023-05-14T08:31:55.679Z,80.80
2023-05-14T08:34:23.179Z,80.70
2023-05-14T08:36:50.932Z,80.70
2023-05-14T08:39:18.219Z,80.50
2023-05-14T08:41:45.811Z,80.50
2023-05-14T08:44:20.728Z,80.20
2023-05-14T08:46:51.273Z,79.80
2023-05-14T08:49:42.717Z,79.80
2023-05-14T08:52:10.850Z,80.00
2023-05-14T08:54:38.912Z,79.60
2023-05-14T08:57:09.234Z,80.10
2023-05-14T08:59:36.800Z,78.80
2023-05-14T09:02:06.704Z,79.10
2023-05-14T09:04:36.013Z,78.30
2023-05-14T09:07:04.207Z,78.20
2023-05-14T09:09:31.723Z,78.20
2023-05-14T09:11:59.122Z,78.30
2023-05-14T09:14:26.852Z,78.00
2023-05-14T09:16:54.856Z,77.70
2023-05-14T09:19:22.329Z,77.80
2023-05-14T09:21:50.085Z,77.50
2023-05-14T09:24:29.466Z,76.90
2023-05-14T09:26:58.049Z,76.10
2023-05-14T09:29:29.380Z,76.00
2023-05-14T09:32:00.022Z,76.00
2023-05-14T09:34:32.385Z,76.20
2023-05-14T09:37:06.832Z,76.80
2023-05-14T09:39:37.242Z,76.20
2023-05-14T09:42:05.313Z,76.30
2023-05-14T09:44:32.943Z,76.00
2023-05-14T09:47:00.867Z,75.60
2023-05-14T09:49:28.531Z,75.50
2023-05-14T09:51:57.914Z,75.60
2023-05-14T09:54:27.397Z,76.10
2023-05-14T09:56:55.942Z,75.10
2023-05-14T09:59:23.504Z,75.00
2023-05-14T10:01:52.518Z,75.00
2023-05-14T10:04:20.571Z,74.60
2023-05-14T10:06:50.492Z,74.30
2023-05-14T10:09:22.164Z,73.90
2023-05-14T10:11:53.437Z,74.10
2023-05-14T10:14:29.324Z,74.00
2023-05-14T10:17:00.728Z,73.30
2023-05-14T10:19:31.018Z,73.90
2023-05-14T10:22:12.672Z,73.80
2023-05-14T10:24:43.693Z,73.90
2023-05-14T10:27:11.125Z,74.40
2023-05-14T10:29:38.927Z,73.30
2023-05-14T10:32:09.347Z,73.50
2023-05-14T10:34:44.283Z,73.80
2023-05-14T10:37:15.948Z,73.20
2023-05-14T10:40:13.192Z,72.70
2023-05-14T10:42:42.522Z,73.50
2023-05-14T10:45:12.729Z,72.70
2023-05-14T10:47:48.182Z,72.80
2023-05-14T10:50:17.972Z,72.30
2023-05-14T10:52:46.236Z,72.30
2023-05-14T10:55:16.139Z,71.90
2023-05-14T10:57:46.024Z,71.10
2023-05-14T11:00:14.862Z,72.40
2023-05-14T11:02:44.435Z,70.70
2023-05-14T11:05:17.716Z,70.10
2023-05-14T11:07:47.359Z,70.30
2023-05-14T11:10:20.052Z,69.80
2023-05-14T11:12:49.383Z,69.50
2023-05-14T11:15:20.587Z,69.30
2023-05-14T11:17:50.559Z,69.00
2023-05-14T11:20:19.359Z,68.40
2023-05-14T11:22:48.361Z,68.90
2023-05-14T11:25:15.971Z,68.00
2023-05-14T11:27:44.852Z,68.00
2023-05-14T11:30:16.549Z,68.00
2023-05-14T11:32:48.478Z,67.40
2023-05-14T11:35:17.140Z,66.90
2023-05-14T11:37:52.257Z,67.60
2023-05-14T11:40:20.202Z,67.40
2023-05-14T11:42:50.941Z,67.00
2023-05-14T11:45:26.596Z,67.10
2023-05-14T11:47:54.911Z,66.90
2023-05-14T11:50:23.366Z,67.10
2023-05-14T11:52:51.197Z,66.80
2023-05-14T11:55:18.683Z,67.10
2023-05-14T11:57:46.209Z,67.10
2023-05-14T12:00:16.684Z,66.90
2023-05-14T12:02:44.261Z,67.20
2023-05-14T12:05:13.405Z,66.70
2023-05-14T12:07:41.932Z,66.70
2023-05-14T12:10:11.974Z,66.30
2023-05-14T12:12:40.672Z,66.00
2023-05-14T12:15:15.411Z,66.40
2023-05-14T12:17:43.022Z,65.30
2023-05-14T12:20:12.277Z,65.90
2023-05-14T12:22:42.176Z,65.20
2023-05-14T12:25:13.835Z,64.90
2023-05-14T12:27:44.874Z,65.90
2023-05-14T12:30:21.376Z,66.20
2023-05-14T12:32:51.831Z,65.70
2023-05-14T12:35:20.820Z,65.20
2023-05-14T12:37:49.385Z,65.20
2023-05-14T12:40:17.143Z,65.00
2023-05-14T12:42:44.762Z,65.20
2023-05-14T12:45:12.294Z,64.90
2023-05-14T12:47:39.682Z,65.20
2023-05-14T12:50:07.752Z,65.10
2023-05-14T12:55:06.554Z,64.20
2023-05-14T12:57:35.271Z,64.30
2023-05-14T13:00:07.117Z,63.00
2023-05-14T13:02:42.311Z,62.40
2023-05-14T13:05:12.463Z,62.10
2023-05-14T13:07:40.378Z,61.20
2023-05-14T13:10:09.376Z,60.90
2023-05-14T13:12:36.698Z,60.50
2023-05-14T13:15:04.544Z,60.00
2023-05-14T13:17:31.942Z,59.80
2023-05-14T13:19:59.358Z,59.70
2023-05-14T13:22:26.702Z,59.60
2023-05-14T13:24:54.224Z,59.30
2023-05-14T13:27:22.663Z,59.10
2023-05-14T13:29:50.049Z,58.50
2023-05-14T13:32:17.475Z,58.70
2023-05-14T13:34:44.744Z,58.10
2023-05-14T13:37:12.179Z,58.30
2023-05-14T13:39:41.080Z,58.60
2023-05-14T13:42:08.646Z,57.90
2023-05-14T13:44:36.269Z,57.20
2023-05-14T13:47:04.328Z,56.80
2023-05-14T13:49:31.713Z,56.70
2023-05-14T13:51:59.004Z,55.60
2023-05-14T13:54:26.756Z,55.30
2023-05-14T13:56:56.088Z,55.90
2023-05-14T13:59:24.000Z,55.20
2023-05-14T14:01:51.903Z,55.40
2023-05-14T14:04:19.992Z,54.90
2023-05-14T14:06:49.103Z,54.50
2023-05-14T14:09:16.581Z,54.10
2023-05-14T14:11:43.925Z,54.10
2023-05-14T14:14:11.302Z,54.20
2023-05-14T14:16:38.800Z,54.20
2023-05-14T14:19:07.180Z,54.20
2023-05-14T14:21:35.333Z,54.10
2023-05-14T14:24:02.788Z,53.50
2023-05-14T14:26:30.286Z,53.20
2023-05-14T14:28:58.498Z,53.00
2023-05-14T14:31:25.917Z,52.80
2023-05-14T14:33:53.432Z,53.10
2023-05-14T14:36:20.943Z,53.90
2023-05-14T14:38:48.390Z,53.50
2023-05-14T14:41:16.424Z,53.10
2023-05-14T14:43:43.828Z,52.60
2023-05-14T14:46:11.259Z,53.30
2023-05-14T14:48:38.839Z,52.50
2023-05-14T14:51:07.800Z,52.40
2023-05-14T14:53:37.125Z,52.30
2023-05-14T14:56:05.178Z,52.00
2023-05-14T14:58:32.788Z,51.90
2023-05-14T15:01:01.361Z,52.70
2023-05-14T15:03:29.182Z,52.50
2023-05-14T15:05:56.780Z,52.80
2023-05-14T15:08:28.592Z,53.10
2023-05-14T15:10:56.962Z,53.80
2023-05-14T15:13:24.909Z,53.80
2023-05-14T15:15:52.720Z,54.00
2023-05-14T15:18:20.565Z,54.10
2023-05-14T15:20:48.419Z,54.50
2023-05-14T15:23:15.820Z,54.20
2023-05-14T15:25:43.254Z,54.30
2023-05-14T15:28:10.892Z,54.30
2023-05-14T15:30:38.323Z,54.20
2023-05-14T15:33:11.039Z,54.50
2023-05-14T15:35:39.292Z,54.40
2023-05-14T15:38:07.180Z,54.30
2023-05-14T15:40:35.218Z,54.70
2023-05-14T15:43:02.735Z,55.00
2023-05-14T15:45:30.328Z,55.50
2023-05-14T15:47:57.733Z,55.80
2023-05-14T15:50:27.277Z,56.40
2023-05-14T15:52:54.786Z,58.20
2023-05-14T15:55:22.280Z,57.10
2023-05-14T15:57:49.943Z,56.80
2023-05-14T16:00:17.681Z,57.20
2023-05-14T16:02:45.129Z,57.60
2023-05-14T16:05:14.444Z,58.20
2023-05-14T16:07:42.762Z,58.30
2023-05-14T16:10:10.547Z,58.50
2023-05-14T16:12:37.979Z,59.10
2023-05-14T16:15:07.022Z,59.20
2023-05-14T16:17:34.760Z,59.00
2023-05-14T16:20:02.400Z,59.20
2023-05-14T16:22:31.948Z,59.80
2023-05-14T16:25:01.807Z,59.60
2023-05-14T16:27:31.217Z,59.80
2023-05-14T16:29:58.717Z,60.10
2023-05-14T16:32:26.157Z,60.70
2023-05-14T16:34:53.681Z,62.10
2023-05-14T16:37:21.115Z,62.00
2023-05-14T16:39:48.663Z,61.10
2023-05-14T16:42:16.119Z,61.50
2023-05-14T16:44:43.480Z,61.70
2023-05-14T16:47:11.107Z,62.10
2023-05-14T16:49:38.482Z,62.30
2023-05-14T16:52:06.493Z,62.50
2023-05-14T16:54:33.996Z,62.70
2023-05-14T16:57:01.420Z,63.50
2023-05-14T16:59:28.857Z,63.40
2023-05-14T17:01:56.327Z,63.60
2023-05-14T17:04:26.474Z,63.60
2023-05-14T17:06:54.859Z,63.70
2023-05-14T17:09:23.231Z,63.70
2023-05-14T17:11:50.916Z,65.60
2023-05-14T17:14:18.313Z,64.60
2023-05-14T17:16:45.818Z,64.80
2023-05-14T17:19:13.210Z,65.40
2023-05-14T17:21:40.651Z,65.10
2023-05-14T17:24:08.231Z,65.20
2023-05-14T17:26:35.769Z,65.50
2023-05-14T17:29:03.333Z,65.60
2023-05-14T17:31:30.907Z,66.50
2023-05-14T17:33:58.791Z,67.70
2023-05-14T17:36:28.637Z,66.00
2023-05-14T17:38:56.413Z,66.10
2023-05-14T17:41:24.589Z,66.20
2023-05-14T17:43:55.819Z,66.50
2023-05-14T17:46:23.673Z,66.50
2023-05-14T17:48:51.110Z,67.20
2023-05-14T17:51:18.530Z,66.90
2023-05-14T17:53:46.219Z,67.20
2023-05-14T17:56:14.192Z,67.30
2023-05-14T17:58:41.577Z,68.00
2023-05-14T18:01:09.098Z,68.20
2023-05-14T18:03:36.713Z,68.80
2023-05-14T18:06:04.774Z,68.20
2023-05-14T18:08:32.155Z,68.30
2023-05-14T18:11:00.735Z,68.40
2023-05-14T18:13:28.246Z,68.40
2023-05-14T18:15:56.658Z,68.90
2023-05-14T18:18:24.278Z,69.10
2023-05-14T18:20:52.083Z,69.80
2023-05-14T18:23:19.568Z,69.20
2023-05-14T18:25:47.984Z,69.70
2023-05-14T18:28:15.819Z,69.30
2023-05-14T18:30:43.664Z,69.50
2023-05-14T18:33:12.319Z,69.90
2023-05-14T18:35:41.344Z,69.60
2023-05-14T18:38:08.888Z,69.90
2023-05-14T18:40:36.360Z,70.30
2023-05-14T18:43:03.933Z,70.20
2023-05-14T18:45:32.480Z,71.90
2023-05-14T18:48:00.230Z,70.60
2023-05-14T18:50:27.855Z,70.90
2023-05-14T18:52:57.783Z,71.40
2023-05-14T18:55:25.638Z,71.80
2023-05-14T18:57:54.609Z,72.30
2023-05-14T19:00:22.424Z,71.90
2023-05-14T19:02:50.035Z,71.90
2023-05-14T19:05:17.582Z,72.50
2023-05-14T19:07:48.230Z,71.30
2023-05-14T19:10:15.854Z,71.30
2023-05-14T19:12:43.333Z,71.50
2023-05-14T19:15:11.286Z,71.70
2023-05-14T19:17:39.350Z,71.60
2023-05-14T19:20:08.079Z,73.60
2023-05-14T19:22:35.586Z,71.90
2023-05-14T19:25:04.311Z,71.90
2023-05-14T19:27:32.942Z,72.10
2023-05-14T19:30:00.340Z,72.30
2023-05-14T19:32:27.901Z,72.30
2023-05-14T19:34:55.336Z,72.50
2023-05-14T19:37:22.801Z,72.80
2023-05-14T19:39:50.374Z,72.50
2023-05-14T19:42:17.774Z,72.70
2023-05-14T19:44:47.434Z,73.00
2023-05-14T19:47:15.058Z,73.20
2023-05-14T19:49:42.629Z,73.00
2023-05-14T19:52:11.389Z,73.30
2023-05-14T19:54:39.041Z,73.20
2023-05-14T19:57:06.621Z,73.90
2023-05-14T19:59:34.709Z,73.80
2023-05-14T20:02:02.296Z,73.80
2023-05-14T20:04:29.673Z,73.70
2023-05-14T20:06:57.886Z,74.00
2023-05-14T20:09:25.225Z,74.00
2023-05-14T20:11:52.560Z,74.40
2023-05-14T20:14:19.861Z,74.10
2023-05-14T20:16:48.865Z,74.50
2023-05-14T20:19:16.747Z,74.20
2023-05-14T20:21:44.294Z,74.30
2023-05-14T20:24:11.705Z,74.60
2023-05-14T20:26:39.657Z,74.90
2023-05-14T20:29:07.058Z,74.80
2023-05-14T20:31:35.058Z,75.20
2023-05-14T20:34:02.638Z,75.40
2023-05-14T20:36:30.171Z,75.50
2023-05-14T20:38:57.796Z,75.80
2023-05-14T20:41:25.094Z,75.90
2023-05-14T20:43:52.624Z,77.00
2023-05-14T20:46:20.032Z,76.10
2023-05-14T20:48:48.217Z,75.80
2023-05-14T20:51:15.682Z,76.00
2023-05-14T20:53:43.060Z,76.20
2023-05-14T20:56:10.524Z,76.30
2023-05-14T20:58:38.082Z,76.20
2023-05-14T21:01:07.976Z,78.50
2023-05-14T21:03:35.860Z,75.70
2023-05-14T21:06:03.425Z,76.80
2023-05-14T21:08:32.962Z,77.00
2023-05-14T21:11:00.553Z,77.10
2023-05-14T21:13:27.977Z,77.20
2023-05-14T21:15:55.682Z,77.40
2023-05-14T21:18:26.649Z,77.50
2023-05-14T21:20:54.025Z,77.30
2023-05-14T21:23:21.432Z,77.80
2023-05-14T21:25:48.778Z,77.90
2023-05-14T21:28:16.122Z,77.90
2023-05-14T21:30:43.492Z,78.30
2023-05-14T21:33:11.076Z,78.40
2023-05-14T21:35:38.475Z,78.50
2023-05-14T21:38:06.069Z,78.40
2023-05-14T21:40:33.406Z,78.60
2023-05-14T21:43:01.269Z,78.80
2023-05-14T21:45:29.822Z,79.00
2023-05-14T21:47:57.391Z,79.10
2023-05-14T21:50:24.825Z,79.30
2023-05-14T21:52:52.324Z,79.20
2023-05-14T21:55:19.649Z,79.50
2023-05-14T21:57:47.110Z,79.30
2023-05-14T22:00:18.732Z,79.40
2023-05-14T22:02:46.088Z,79.50
2023-05-14T22:05:13.528Z,79.50
2023-05-14T22:07:40.993Z,79.80
2023-05-14T22:10:08.702Z,80.10
2023-05-14T22:12:36.166Z,79.90
2023-05-14T22:15:04.200Z,81.00
2023-05-14T22:17:31.562Z,79.80
2023-05-14T22:19:58.938Z,80.20
2023-05-14T22:22:26.428Z,80.00
2023-05-14T22:24:53.838Z,80.10
2023-05-14T22:27:21.140Z,80.30
2023-05-14T22:29:48.554Z,80.60
2023-05-14T22:32:15.894Z,80.50
2023-05-14T22:34:43.202Z,80.60
2023-05-14T22:37:10.918Z,80.90
2023-05-14T22:39:38.317Z,81.00
2023-05-14T22:42:05.956Z,81.20
2023-05-14T22:44:33.281Z,81.00
2023-05-14T22:47:00.608Z,80.80
2023-05-14T22:49:28.003Z,80.80
2023-05-14T22:51:55.398Z,80.90
2023-05-14T22:54:22.840Z,81.20
2023-05-14T22:56:51.348Z,81.10
2023-05-14T22:59:18.650Z,81.10
2023-05-14T23:01:46.075Z,81.20
2023-05-14T23:04:13.517Z,81.30
2023-05-14T23:06:41.296Z,81.80
2023-05-14T23:09:08.603Z,81.50
2023-05-14T23:11:35.977Z,81.60
2023-05-14T23:14:03.337Z,81.60
2023-05-14T23:16:31.825Z,81.80
2023-05-14T23:18:59.338Z,82.10
2023-05-14T23:21:26.787Z,82.00
2023-05-14T23:23:54.146Z,82.10
2023-05-14T23:26:21.741Z,83.40
2023-05-14T23:28:49.130Z,82.50
2023-05-14T23:31:16.526Z,82.40
2023-05-14T23:33:44.684Z,82.40
2023-05-14T23:36:12.194Z,82.40
2023-05-14T23:38:40.210Z,82.70
2023-05-14T23:41:07.556Z,82.30
2023-05-14T23:43:34.979Z,82.60
2023-05-14T23:46:02.651Z,82.60
2023-05-14T23:48:30.681Z,83.30
2023-05-14T23:50:58.023Z,82.80
2023-05-14T23:53:25.360Z,82.80
2023-05-14T23:55:52.785Z,82.80
2023-05-14T23:58:20.522Z,83.00
